Time;durP1;ratioP1;P1;durP2;ratioP2;P2;SDS_P1;SDS_P2;PMS_P1;PMS_P2;Temp;Humidity;BMP_temperature;BMP_pressure;BME280_temperature;BME280_humidity;BME280_pressure;Samples;Min_cycle;Max_cycle;Signal;HPM_P1;HPM_P2
2022/05/28 00:00:26;;;;;;;1.67;1.40;;;;;;;20.67;46.81;93462.19;4974381;28;20435;-90
2022/05/28 00:02:51;;;;;;;2.05;1.60;;;;;;;20.69;46.28;93456.91;5010558;28;20041;-89
2022/05/28 00:05:17;;;;;;;1.92;1.60;;;;;;;20.67;46.64;93443.69;4980372;28;20169;-90
2022/05/28 00:07:42;;;;;;;1.70;1.50;;;;;;;20.68;46.87;93433.47;5002265;28;20133;-90
2022/05/28 00:10:09;;;;;;;1.98;1.50;;;;;;;20.65;46.58;93446.22;4992989;28;20085;-90
2022/05/28 00:12:35;;;;;;;1.90;1.42;;;;;;;20.65;46.87;93438.00;4956409;28;20437;-90
2022/05/28 00:15:00;;;;;;;1.73;1.45;;;;;;;20.65;46.68;93434.50;4967166;28;20035;-90
2022/05/28 00:17:26;;;;;;;2.30;1.50;;;;;;;20.66;46.67;93441.47;4975768;28;20489;-90
2022/05/28 00:19:51;;;;;;;2.08;1.52;;;;;;;20.66;47.03;93444.22;4986855;28;20034;-90
2022/05/28 00:22:17;;;;;;;2.15;1.50;;;;;;;20.66;46.52;93430.50;4974237;28;20492;-89
2022/05/28 00:24:44;;;;;;;1.55;1.33;;;;;;;20.64;46.71;93422.03;4961987;28;20048;-90
2022/05/28 00:27:09;;;;;;;1.63;1.40;;;;;;;20.64;46.74;93425.53;4982726;28;20054;-90
2022/05/28 00:29:35;;;;;;;1.92;1.63;;;;;;;20.64;46.96;93431.00;4974695;28;20034;-90
2022/05/28 00:32:01;;;;;;;1.80;1.40;;;;;;;20.64;46.77;93425.53;4993533;28;20034;-90
2022/05/28 00:34:27;;;;;;;1.58;1.20;;;;;;;20.64;46.88;93424.78;4975535;28;20038;-89
2022/05/28 00:36:53;;;;;;;2.30;1.80;;;;;;;20.65;46.85;93421.50;4990679;28;20281;-90
2022/05/28 00:39:18;;;;;;;1.42;1.33;;;;;;;20.63;46.78;93421.28;4988861;28;20083;-89
2022/05/28 00:41:44;;;;;;;1.73;1.20;;;;;;;20.66;46.69;93420.25;4962094;28;20060;-90
2022/05/28 00:44:10;;;;;;;1.95;1.50;;;;;;;20.63;46.92;93424.03;4979681;28;20125;-89
2022/05/28 00:46:36;;;;;;;1.55;1.25;;;;;;;20.63;46.69;93415.78;4992184;28;20041;-90
2022/05/28 00:49:04;;;;;;;1.98;1.23;;;;;;;20.63;46.77;93409.56;4989610;28;20037;-91
2022/05/28 00:51:32;;;;;;;0.93;0.88;;;;;;;20.63;46.85;93404.06;4992966;28;20029;-89
2022/05/28 00:53:59;;;;;;;1.15;1.05;;;;;;;20.61;46.71;93409.34;4977862;28;20026;-90
2022/05/28 00:56:26;;;;;;;1.75;1.40;;;;;;;20.61;46.74;93412.84;4968395;28;20121;-90
2022/05/28 00:58:52;;;;;;;1.77;1.45;;;;;;;20.59;47.19;93404.38;4987259;28;20033;-90
2022/05/28 01:01:22;;;;;;;1.55;1.10;;;;;;;20.63;46.58;93398.56;5002267;28;20464;-90
2022/05/28 01:04:16;;;;;;;1.70;1.27;;;;;;;20.63;46.83;93401.31;4986460;28;20092;-90
2022/05/28 01:06:51;;;;;;;1.77;1.17;;;;;;;20.63;46.95;93401.31;4993316;28;20529;-90
2022/05/28 01:09:24;;;;;;;1.92;1.27;;;;;;;20.60;46.96;93400.38;4960579;28;20041;-90
2022/05/28 01:12:12;;;;;;;1.77;1.38;;;;;;;20.60;46.90;93399.63;4987903;28;20073;-90
2022/05/28 01:14:47;;;;;;;1.92;1.30;;;;;;;20.59;46.91;93390.66;5004330;28;20120;-89
2022/05/28 01:17:24;;;;;;;1.73;1.40;;;;;;;20.58;47.07;93386.41;4965867;28;20049;-90
2022/05/28 01:20:04;;;;;;;1.08;0.98;;;;;;;20.58;46.73;93380.91;4965345;28;20076;-91
2022/05/28 01:22:59;;;;;;;1.65;1.20;;;;;;;20.59;46.95;93367.94;4974727;28;20184;-90
2022/05/28 01:25:43;;;;;;;1.88;1.15;;;;;;;20.57;46.64;93381.47;4989854;28;20046;-90
2022/05/28 01:28:11;;;;;;;1.00;0.90;;;;;;;20.58;46.65;93369.94;4974853;28;20082;-90
2022/05/28 01:30:38;;;;;;;1.73;1.60;;;;;;;20.58;46.74;93369.94;4962037;28;20042;-90
2022/05/28 01:33:03;;;;;;;1.90;1.25;;;;;;;20.56;46.62;93374.50;4981067;28;20144;-89
2022/05/28 01:35:29;;;;;;;1.20;1.08;;;;;;;20.57;46.74;93379.44;4971593;28;20114;-90
2022/05/28 01:37:54;;;;;;;1.35;1.23;;;;;;;20.56;46.62;93369.75;4975861;28;20045;-90
2022/05/28 01:40:20;;;;;;;1.38;1.10;;;;;;;20.58;46.75;93371.94;4985409;28;20117;-90
2022/05/28 01:42:48;;;;;;;1.70;1.10;;;;;;;20.56;46.71;93369.75;4977309;28;20481;-90
2022/05/28 01:45:14;;;;;;;1.70;1.33;;;;;;;20.57;46.82;93365.00;4958179;28;20190;-89
2022/05/28 01:47:39;;;;;;;1.95;1.00;;;;;;;20.56;46.71;93375.25;4984087;28;20542;-90
2022/05/28 01:50:06;;;;;;;1.13;0.95;;;;;;;20.54;46.78;93364.03;4985718;28;20092;-90
2022/05/28 01:52:31;;;;;;;1.38;1.08;;;;;;;20.56;46.67;93374.50;4978305;28;20258;-90
2022/05/28 01:54:57;;;;;;;1.23;1.13;;;;;;;20.57;46.51;93367.75;4985214;28;20488;-90
2022/05/28 01:57:22;;;;;;;1.10;1.00;;;;;;;20.56;46.81;93358.75;5003100;28;20080;-90
2022/05/28 01:59:48;;;;;;;1.60;1.20;;;;;;;20.55;47.02;93364.78;4969302;28;20517;-90
2022/05/28 02:02:14;;;;;;;2.17;1.10;;;;;;;20.53;46.85;93371.53;4984573;28;20365;-90
2022/05/28 02:04:41;;;;;;;1.75;1.20;;;;;;;20.55;46.80;93357.28;4974884;28;20064;-90
2022/05/28 02:07:06;;;;;;;1.52;1.42;;;;;;;20.55;46.31;93362.03;5000029;28;20509;-91
2022/05/28 02:09:35;;;;;;;1.10;0.88;;;;;;;20.53;46.59;93365.31;4992943;28;20042;-90
2022/05/28 02:12:20;;;;;;;1.50;1.20;;;;;;;20.53;46.69;93360.56;4974952;28;20033;-91
2022/05/28 02:14:51;;;;;;;1.40;1.00;;;;;;;20.54;46.46;93364.03;4997860;28;20510;-90
2022/05/28 02:17:30;;;;;;;1.23;1.00;;;;;;;20.52;46.52;93353.56;4999783;28;20037;-89
2022/05/28 02:20:24;;;;;;;1.63;1.27;;;;;;;20.52;46.75;93353.56;4989508;28;20026;-89
2022/05/28 02:22:56;;;;;;;1.50;1.30;;;;;;;20.52;46.70;93352.84;4976691;28;20046;-90
2022/05/28 02:25:33;;;;;;;1.20;0.90;;;;;;;20.54;46.58;93353.06;5010340;28;22812;-90
2022/05/28 02:27:58;;;;;;;1.13;0.90;;;;;;;20.51;46.71;93357.59;5002853;28;20042;-90
2022/05/28 02:30:24;;;;;;;1.40;1.20;;;;;;;20.51;46.71;93360.34;4985397;28;20046;-89
2022/05/28 02:33:01;;;;;;;1.00;0.90;;;;;;;20.52;46.72;93350.09;4992836;28;20041;-90
2022/05/28 02:35:26;;;;;;;1.20;1.10;;;;;;;20.52;46.67;93355.59;4987375;28;20034;-90
2022/05/28 02:37:52;;;;;;;1.25;1.15;;;;;;;20.50;46.52;93345.13;4992309;28;20026;-90
2022/05/28 02:40:17;;;;;;;1.30;0.90;;;;;;;20.52;46.72;93347.34;4978502;28;20042;-90
2022/05/28 02:42:43;;;;;;;1.38;1.00;;;;;;;20.50;46.63;93345.13;4982924;28;20042;-90
2022/05/28 02:45:09;;;;;;;1.13;0.85;;;;;;;20.49;46.80;93340.91;4973073;28;20057;-90
2022/05/28 02:47:34;;;;;;;1.00;0.85;;;;;;;20.50;46.71;93342.38;4980470;28;20500;-90
2022/05/28 02:50:00;;;;;;;1.63;1.02;;;;;;;20.50;46.74;93347.88;4981328;28;20041;-90
2022/05/28 02:52:25;;;;;;;2.13;1.27;;;;;;;20.49;46.70;93337.41;4991184;28;20459;-90
2022/05/28 02:54:50;;;;;;;1.30;1.08;;;;;;;20.49;46.90;93342.91;4981607;28;20383;-90
2022/05/28 02:57:16;;;;;;;1.48;1.10;;;;;;;20.52;46.60;93339.84;4979201;28;20495;-89
2022/05/28 02:59:41;;;;;;;1.70;0.80;;;;;;;20.51;46.71;93340.38;4986566;28;20034;-89
2022/05/28 03:02:07;;;;;;;1.20;1.00;;;;;;;20.48;46.84;93339.41;4970113;28;20512;-90
2022/05/28 03:04:32;;;;;;;1.05;0.95;;;;;;;20.50;46.58;93341.63;4991699;28;20476;-91
2022/05/28 03:06:58;;;;;;;1.00;0.90;;;;;;;20.50;46.58;93339.63;4986826;28;20041;-91
2022/05/28 03:09:23;;;;;;;1.08;0.98;;;;;;;20.48;46.65;93335.94;4971577;28;20444;-90
2022/05/28 03:11:49;;;;;;;1.15;0.98;;;;;;;20.49;46.87;93337.41;4984805;28;20056;-90
2022/05/28 03:14:14;;;;;;;1.02;0.90;;;;;;;20.50;46.74;93333.41;4973798;28;20038;-89
2022/05/28 03:16:42;;;;;;;1.75;1.20;;;;;;;20.47;46.67;93332.44;4974565;28;20038;-91
2022/05/28 03:19:07;;;;;;;1.20;0.90;;;;;;;20.48;46.82;93324.94;4973136;28;20374;-90
2022/05/28 03:21:33;;;;;;;2.08;1.00;;;;;;;20.49;46.67;93329.91;4975998;28;20080;-90
2022/05/28 03:24:00;;;;;;;1.02;0.93;;;;;;;20.49;46.72;93334.66;4995122;28;20033;-90
2022/05/28 03:26:27;;;;;;;1.10;0.98;;;;;;;20.47;46.67;93326.94;4991396;28;20129;-90
2022/05/28 03:28:52;;;;;;;2.20;0.93;;;;;;;20.47;46.78;93315.22;4949436;28;20033;-90
2022/05/28 03:31:18;;;;;;;1.13;1.00;;;;;;;20.48;46.77;93327.69;4989906;28;20377;-89
2022/05/28 03:33:44;;;;;;;1.30;1.00;;;;;;;20.47;46.68;93323.47;4974452;28;20042;-90
2022/05/28 03:36:09;;;;;;;1.45;0.93;;;;;;;20.47;46.85;93331.69;4973919;28;20046;-89
2022/05/28 03:38:35;;;;;;;1.10;1.00;;;;;;;20.46;46.87;93324.72;5000250;28;20049;-90
2022/05/28 03:41:00;;;;;;;1.02;0.88;;;;;;;20.46;46.80;93328.22;5010790;28;20044;-89
2022/05/28 03:43:26;;;;;;;1.45;1.10;;;;;;;20.48;46.75;93335.94;5007893;28;20034;-90
2022/05/28 03:45:51;;;;;;;1.35;0.85;;;;;;;20.47;46.69;93337.19;5011106;28;20088;-91
2022/05/28 03:48:17;;;;;;;1.10;1.00;;;;;;;20.45;46.76;93337.72;4993880;28;20030;-90
2022/05/28 03:50:42;;;;;;;1.35;1.10;;;;;;;20.46;46.69;93341.94;4994449;28;20602;-90
2022/05/28 03:53:08;;;;;;;0.98;0.80;;;;;;;20.46;47.02;93332.97;4989230;28;20034;-90
2022/05/28 03:55:33;;;;;;;0.90;0.90;;;;;;;20.46;46.68;93333.72;4961017;28;20115;-90
2022/05/28 03:57:59;;;;;;;1.20;1.02;;;;;;;20.45;46.79;93337.72;5005750;28;20452;-89
2022/05/28 04:00:24;;;;;;;1.38;1.00;;;;;;;20.45;46.62;93339.72;4988838;28;20037;-90
2022/05/28 04:02:49;;;;;;;0.80;0.80;;;;;;;20.46;46.72;93333.72;5003043;28;20033;-90
2022/05/28 04:05:15;;;;;;;0.88;0.80;;;;;;;20.45;46.60;93336.97;5009817;28;20068;-91
2022/05/28 04:07:40;;;;;;;1.20;0.88;;;;;;;20.47;46.72;93334.44;4981795;28;20038;-90
2022/05/28 04:10:06;;;;;;;0.85;0.73;;;;;;;20.46;46.68;93322.72;4986651;28;20033;-90
2022/05/28 04:12:32;;;;;;;1.20;1.08;;;;;;;20.46;46.82;93333.72;5008926;28;20065;-90
2022/05/28 04:14:58;;;;;;;1.45;0.77;;;;;;;20.45;46.67;93343.22;4993762;28;20419;-90
2022/05/28 04:17:23;;;;;;;1.75;1.10;;;;;;;20.47;46.68;93342.69;4998407;28;20365;-91
2022/05/28 04:19:49;;;;;;;1.20;0.90;;;;;;;20.45;46.63;93353.44;4992939;28;20087;-90
2022/05/28 04:22:15;;;;;;;1.25;1.00;;;;;;;20.46;46.64;93339.19;5009850;28;20053;-90
2022/05/28 04:24:41;;;;;;;1.52;0.98;;;;;;;20.42;46.84;93344.25;4993463;28;20040;-90
2022/05/28 04:27:06;;;;;;;0.85;0.85;;;;;;;20.45;46.62;93343.22;4993182;28;20037;-90
2022/05/28 04:29:32;;;;;;;0.75;0.75;;;;;;;20.45;46.69;93339.72;4993937;28;20049;-91
2022/05/28 04:31:57;;;;;;;0.90;0.90;;;;;;;20.44;46.58;93338.97;4979379;28;20065;-90
2022/05/28 04:34:22;;;;;;;1.48;1.10;;;;;;;20.45;46.76;93343.22;4990593;28;20099;-90
2022/05/28 04:36:48;;;;;;;2.35;0.90;;;;;;;20.45;46.77;93345.94;4993218;28;20034;-89
2022/05/28 04:39:13;;;;;;;1.42;1.08;;;;;;;20.44;46.67;93344.47;5009063;28;20036;-90
2022/05/28 04:41:39;;;;;;;0.95;0.85;;;;;;;20.46;46.55;93350.19;5009871;28;20033;-90
2022/05/28 04:44:04;;;;;;;0.77;0.75;;;;;;;20.44;46.61;93346.47;4979347;28;20041;-90
2022/05/28 04:46:30;;;;;;;0.80;0.80;;;;;;;20.42;46.91;93352.50;4959641;28;20041;-90
2022/05/28 04:48:55;;;;;;;1.00;0.90;;;;;;;20.43;46.74;93351.22;4993627;28;20043;-90
2022/05/28 04:51:21;;;;;;;1.30;0.98;;;;;;;20.44;46.74;93340.97;4992965;28;20417;-91
2022/05/28 04:53:46;;;;;;;1.48;0.90;;;;;;;20.44;46.66;93347.22;4993169;28;20037;-89
2022/05/28 04:56:14;;;;;;;0.75;0.65;;;;;;;20.44;46.58;93343.72;4992672;28;20034;-90
2022/05/28 04:58:40;;;;;;;0.65;0.65;;;;;;;20.45;46.74;93339.72;4986687;28;20069;-90
2022/05/28 05:01:05;;;;;;;1.10;0.80;;;;;;;20.43;46.69;93353.22;5009358;28;20406;-90
2022/05/28 05:03:32;;;;;;;1.05;0.95;;;;;;;20.44;46.75;93360.94;4993236;28;20033;-90
2022/05/28 05:05:57;;;;;;;0.70;0.70;;;;;;;20.43;46.79;93355.97;4966286;28;20069;-89
2022/05/28 05:08:23;;;;;;;0.90;0.80;;;;;;;20.43;46.56;93356.72;4955992;28;20484;-90
2022/05/28 05:10:48;;;;;;;1.33;0.63;;;;;;;20.43;46.77;93362.22;4979899;28;20365;-90
2022/05/28 05:13:14;;;;;;;1.92;0.90;;;;;;;20.41;46.91;93355.75;4959123;28;20034;-90
2022/05/28 05:15:39;;;;;;;0.82;0.82;;;;;;;20.42;46.55;93349.75;4985108;28;20492;-90
2022/05/28 05:18:05;;;;;;;0.98;0.75;;;;;;;20.40;46.61;93355.03;4986603;28;20034;-91
2022/05/28 05:20:30;;;;;;;1.35;0.98;;;;;;;20.42;46.84;93360.72;4974800;28;20042;-90
2022/05/28 05:22:56;;;;;;;0.80;0.77;;;;;;;20.42;46.45;93362.72;4992908;28;20091;-90
2022/05/28 05:25:22;;;;;;;0.70;0.70;;;;;;;20.41;46.84;93370.22;4984765;28;20571;-89
2022/05/28 05:27:47;;;;;;;1.10;0.65;;;;;;;20.41;46.62;93362.00;4969025;28;20113;-91
2022/05/28 05:30:13;;;;;;;0.90;0.68;;;;;;;20.42;46.65;93374.47;4968585;28;20041;-90
2022/05/28 05:32:38;;;;;;;0.93;0.90;;;;;;;20.42;46.48;93366.22;4993871;28;20033;-90
2022/05/28 05:35:04;;;;;;;0.80;0.80;;;;;;;20.44;46.55;93373.94;4991849;28;20084;-90
2022/05/28 05:37:31;;;;;;;1.08;0.60;;;;;;;20.41;46.76;93386.69;4992394;28;20484;-90
2022/05/28 05:39:56;;;;;;;0.55;0.55;;;;;;;20.41;46.72;93377.72;4992701;28;20140;-90
2022/05/28 05:42:22;;;;;;;1.10;1.00;;;;;;;20.41;46.47;93381.22;5008126;28;20042;-89
2022/05/28 05:44:47;;;;;;;0.95;0.82;;;;;;;20.40;46.66;93374.25;4979817;28;20033;-90
2022/05/28 05:47:13;;;;;;;2.17;1.02;;;;;;;20.41;46.72;93374.97;5008696;28;20053;-90
2022/05/28 05:49:38;;;;;;;1.00;0.80;;;;;;;20.41;46.72;93377.72;4992841;28;20484;-89
2022/05/28 05:52:04;;;;;;;1.00;0.90;;;;;;;20.41;46.58;93375.72;4989954;28;20203;-91
2022/05/28 05:54:30;;;;;;;0.88;0.77;;;;;;;20.42;46.67;93371.72;4989723;28;20431;-90
2022/05/28 05:56:55;;;;;;;0.80;0.80;;;;;;;20.40;46.57;93371.50;4996212;28;20029;-90
2022/05/28 05:59:22;;;;;;;1.30;1.05;;;;;;;20.41;46.81;93377.72;4997469;28;20041;-90
2022/05/28 06:01:47;;;;;;;1.08;0.98;;;;;;;20.39;46.33;93369.28;4991997;28;20095;-91
2022/05/28 06:04:13;;;;;;;1.25;0.70;;;;;;;20.39;46.61;93369.28;5008477;28;20050;-90
2022/05/28 06:06:40;;;;;;;1.10;1.00;;;;;;;20.38;46.79;93371.28;4990622;28;20048;-90
2022/05/28 06:09:05;;;;;;;1.33;0.90;;;;;;;20.40;46.73;93362.50;4978664;28;20037;-89
2022/05/28 06:11:31;;;;;;;0.98;0.80;;;;;;;20.40;46.40;93368.00;4978489;28;20466;-90
2022/05/28 06:13:57;;;;;;;1.10;0.85;;;;;;;20.38;46.63;93352.06;4985811;28;20515;-90
2022/05/28 06:16:22;;;;;;;2.00;0.90;;;;;;;20.38;46.29;93357.53;4991120;28;20056;-90
2022/05/28 06:18:48;;;;;;;1.25;0.93;;;;;;;20.38;46.80;93356.81;4977075;28;20421;-89
2022/05/28 06:21:14;;;;;;;1.20;0.80;;;;;;;20.38;46.19;93349.31;4981074;28;20046;-90
2022/05/28 06:23:41;;;;;;;1.42;0.88;;;;;;;20.40;46.61;93357.03;4986855;28;20092;-90
2022/05/28 06:26:06;;;;;;;0.80;0.80;;;;;;;20.36;46.43;93357.31;5008275;28;20049;-90
2022/05/28 06:28:32;;;;;;;0.95;0.85;;;;;;;20.39;46.50;93364.53;5008333;28;20077;-89
2022/05/28 06:31:01;;;;;;;2.25;0.90;;;;;;;20.39;46.26;93363.78;5004530;28;20034;-90
2022/05/28 06:33:27;;;;;;;1.15;0.82;;;;;;;20.41;46.44;93362.00;4981410;28;20041;-91
2022/05/28 06:35:56;;;;;;;0.80;0.70;;;;;;;20.39;46.50;93361.03;4999772;28;20038;-89
2022/05/28 06:38:22;;;;;;;1.48;1.00;;;;;;;20.39;46.47;93356.28;4972939;28;21823;-90
2022/05/28 06:40:47;;;;;;;1.73;0.95;;;;;;;20.38;46.36;93362.28;4991880;28;20030;-92
2022/05/28 06:43:13;;;;;;;0.93;0.80;;;;;;;20.41;46.52;93355.75;5002824;28;20096;-91
2022/05/28 06:45:38;;;;;;;1.05;0.85;;;;;;;20.42;46.43;93357.25;4972430;28;20042;-90
2022/05/28 06:48:04;;;;;;;1.98;1.13;;;;;;;20.41;46.27;93353.75;4992225;28;20405;-90
2022/05/28 06:53:13;;;;;;;1.00;0.82;;;;;;;20.45;46.54;93354.19;5010750;28;20130;-90
2022/05/28 06:55:39;;;;;;;0.63;0.63;;;;;;;20.45;46.24;93356.19;4989015;28;20481;-90
2022/05/28 06:58:06;;;;;;;1.05;0.80;;;;;;;20.45;46.62;93356.19;5001496;28;20022;-90
2022/05/28 07:00:31;;;;;;;1.15;0.70;;;;;;;20.47;46.18;93353.66;5011022;28;20757;-90
2022/05/28 07:02:57;;;;;;;1.08;0.80;;;;;;;20.50;46.09;93358.84;4974902;28;20497;-90
2022/05/28 07:05:22;;;;;;;0.93;0.80;;;;;;;20.51;46.15;93354.09;4995450;28;20057;-90
2022/05/28 07:07:48;;;;;;;0.70;0.60;;;;;;;20.52;46.20;93363.81;4986571;28;20121;-90
2022/05/28 07:10:13;;;;;;;1.45;0.77;;;;;;;20.55;46.07;93348.31;4971660;28;20041;-90
2022/05/28 07:12:38;;;;;;;1.10;0.70;;;;;;;20.56;46.22;93358.03;5007442;28;20049;-90
2022/05/28 07:15:04;;;;;;;1.10;1.00;;;;;;;20.56;45.99;93356.00;4952881;28;20050;-90
2022/05/28 07:17:30;;;;;;;0.73;0.68;;;;;;;20.57;46.03;93351.97;4984969;28;20107;-90
2022/05/28 07:19:55;;;;;;;0.75;0.75;;;;;;;20.55;46.24;93359.28;5000046;28;20045;-90
2022/05/28 07:22:21;;;;;;;0.60;0.60;;;;;;;20.57;45.98;93343.03;4987654;28;20047;-90
2022/05/28 07:24:46;;;;;;;0.77;0.68;;;;;;;20.59;46.02;93345.97;4976280;28;20483;-91
2022/05/28 07:27:12;;;;;;;0.90;0.60;;;;;;;20.62;46.08;93355.91;4973414;28;20057;-90
2022/05/28 07:29:39;;;;;;;1.33;1.05;;;;;;;20.66;45.88;93348.09;4984003;28;20041;-90
2022/05/28 07:32:05;;;;;;;0.60;0.50;;;;;;;20.64;45.94;93348.63;4969941;28;20046;-89
2022/05/28 07:34:32;;;;;;;1.10;0.80;;;;;;;20.63;46.08;93344.38;4957289;28;20477;-90
2022/05/28 07:36:57;;;;;;;0.50;0.50;;;;;;;20.64;46.05;93353.38;4985430;28;20524;-89
2022/05/28 07:39:22;;;;;;;0.70;0.70;;;;;;;20.66;46.06;93339.84;4980874;28;20034;-90
2022/05/28 07:41:48;;;;;;;0.60;0.57;;;;;;;20.67;45.84;93338.59;4987233;28;21657;-89
2022/05/28 07:44:14;;;;;;;0.70;0.70;;;;;;;20.70;45.85;93343.03;4980862;28;20046;-90
2022/05/28 07:46:39;;;;;;;1.30;0.82;;;;;;;20.70;45.67;93332.78;4972180;28;20034;-89
2022/05/28 07:49:05;;;;;;;1.00;0.68;;;;;;;20.70;46.18;93343.75;4949515;28;20080;-90
2022/05/28 07:51:30;;;;;;;1.30;0.88;;;;;;;20.73;45.77;93352.97;4975200;28;20037;-90
2022/05/28 07:53:56;;;;;;;0.95;0.50;;;;;;;20.73;45.79;93339.97;4984569;28;20119;-90
2022/05/28 07:56:22;;;;;;;0.85;0.60;;;;;;;20.73;45.65;93350.97;4982524;28;20049;-90
2022/05/28 07:58:47;;;;;;;0.50;0.50;;;;;;;20.74;45.50;93343.47;4975442;28;20042;-90
2022/05/28 08:01:24;;;;;;;0.55;0.55;;;;;;;20.74;45.32;93341.44;4968002;28;20084;-91
2022/05/28 08:03:50;;;;;;;0.50;0.50;;;;;;;20.76;45.51;93327.19;4984038;28;20038;-90
2022/05/28 08:06:16;;;;;;;0.80;0.70;;;;;;;20.74;45.65;93332.47;4979219;28;20489;-90
2022/05/28 08:08:41;;;;;;;1.02;0.80;;;;;;;20.78;45.44;93325.41;4969326;28;20057;-90
2022/05/28 08:11:08;;;;;;;0.98;0.68;;;;;;;20.77;45.43;93326.66;4978601;28;20042;-90
2022/05/28 08:13:34;;;;;;;0.77;0.60;;;;;;;20.78;45.17;93339.13;4971152;28;20050;-90
2022/05/28 08:15:59;;;;;;;0.93;0.77;;;;;;;20.80;45.55;93331.06;4976908;28;20069;-90
2022/05/28 08:18:25;;;;;;;0.80;0.65;;;;;;;20.79;45.43;93329.59;4970360;28;20321;-90
2022/05/28 08:23:34;;;;;;;0.65;0.63;;;;;;;20.80;45.39;93333.81;4975937;28;20404;-91
2022/05/28 08:26:00;;;;;;;0.63;0.60;;;;;;;20.77;45.17;93329.41;4967523;28;20046;-90
2022/05/28 08:28:25;;;;;;;1.73;0.70;;;;;;;20.80;45.23;93328.31;4967351;28;20128;-90
2022/05/28 08:30:51;;;;;;;1.25;0.93;;;;;;;20.82;45.35;93336.03;4990630;28;20030;-90
2022/05/28 08:33:17;;;;;;;0.70;0.60;;;;;;;20.77;45.49;93321.16;4965603;28;20065;-90
2022/05/28 08:35:43;;;;;;;1.25;0.93;;;;;;;20.78;45.28;93336.38;4978321;28;20065;-91
2022/05/28 08:38:10;;;;;;;1.15;0.68;;;;;;;20.82;45.12;93336.78;4974043;28;20046;-90
2022/05/28 08:40:46;;;;;;;0.77;0.70;;;;;;;20.81;45.09;93343.53;4970610;28;20034;-90
2022/05/28 08:43:12;;;;;;;0.98;0.80;;;;;;;20.81;45.01;93351.03;4994340;28;20044;-90
2022/05/28 08:45:37;;;;;;;0.70;0.70;;;;;;;20.83;45.09;93356.75;4986998;28;20046;-90
2022/05/28 08:48:03;;;;;;;2.15;0.80;;;;;;;20.85;44.99;93354.22;4974626;28;20034;-89
2022/05/28 08:50:29;;;;;;;0.85;0.80;;;;;;;20.85;45.14;93351.47;4986846;28;20044;-91
2022/05/28 08:53:12;;;;;;;0.80;0.70;;;;;;;20.81;45.33;93351.78;4984879;28;20065;-89
2022/05/28 08:55:42;;;;;;;0.80;0.70;;;;;;;20.83;45.19;93360.25;4988925;28;20057;-91
2022/05/28 08:58:08;;;;;;;1.17;0.50;;;;;;;20.84;45.17;93358.25;4970441;28;20039;-90
2022/05/28 09:00:39;;;;;;;0.73;0.60;;;;;;;20.83;45.09;93362.25;4972929;28;20449;-90
2022/05/28 09:03:11;;;;;;;1.20;0.75;;;;;;;20.84;45.02;93374.72;4961898;28;20112;-90
2022/05/28 09:05:59;;;;;;;1.63;1.02;;;;;;;20.81;45.00;93362.03;4981084;28;20037;-90
2022/05/28 09:08:36;;;;;;;0.80;0.70;;;;;;;20.84;44.86;93366.47;5000798;28;20124;-91
2022/05/28 09:11:04;;;;;;;0.70;0.70;;;;;;;20.83;44.84;93363.00;4967882;28;20575;-90
2022/05/28 09:13:37;;;;;;;0.60;0.60;;;;;;;20.85;44.94;93365.94;4963875;28;20141;-91
2022/05/28 09:16:03;;;;;;;1.05;0.80;;;;;;;20.83;44.86;93365.75;4988682;28;20130;-90
2022/05/28 09:18:33;;;;;;;0.60;0.60;;;;;;;20.83;44.87;93371.22;4969528;28;20121;-90
2022/05/28 09:20:58;;;;;;;0.50;0.40;;;;;;;20.82;44.91;93367.00;4985929;28;20046;-90
2022/05/28 09:23:24;;;;;;;0.52;0.50;;;;;;;20.85;44.95;93370.72;5009577;28;20095;-90
2022/05/28 09:25:50;;;;;;;0.60;0.60;;;;;;;20.84;44.71;93371.97;4991302;28;20046;-91
2022/05/28 09:28:21;;;;;;;0.88;0.60;;;;;;;20.86;45.14;93378.44;4988347;28;20480;-91
2022/05/28 09:31:00;;;;;;;0.60;0.60;;;;;;;20.84;45.02;93371.97;4977663;28;20594;-90
2022/05/28 09:33:29;;;;;;;0.80;0.70;;;;;;;20.86;44.93;93377.69;4988552;28;20061;-91
2022/05/28 09:35:57;;;;;;;0.82;0.63;;;;;;;20.87;44.94;93365.44;5003472;28;20042;-90
2022/05/28 09:38:35;;;;;;;0.88;0.70;;;;;;;20.85;44.74;93363.22;5008475;28;20042;-90
2022/05/28 09:41:13;;;;;;;0.43;0.43;;;;;;;20.85;44.87;93373.47;5004101;28;20659;-90
2022/05/28 09:43:53;;;;;;;1.30;0.73;;;;;;;20.86;44.77;93358.44;5009232;28;20040;-91
2022/05/28 09:46:24;;;;;;;0.93;0.50;;;;;;;20.85;45.06;93362.47;4989887;28;20413;-91
2022/05/28 09:49:10;;;;;;;0.70;0.70;;;;;;;20.85;45.07;93359.72;5026374;28;20527;-90
2022/05/28 09:51:36;;;;;;;1.48;0.70;;;;;;;20.85;44.98;93367.97;4983805;28;20070;-90
2022/05/28 09:54:20;;;;;;;1.08;0.55;;;;;;;20.86;45.08;93355.69;4964276;28;20423;-90
2022/05/28 09:56:54;;;;;;;0.70;0.70;;;;;;;20.86;45.00;93359.19;5006586;28;20045;-90
2022/05/28 09:59:21;;;;;;;0.82;0.50;;;;;;;20.89;44.92;93362.91;4991549;28;20041;-90
2022/05/28 10:02:14;;;;;;;0.98;0.52;;;;;;;20.85;45.07;93365.22;4994004;28;20034;-90
2022/05/28 10:04:43;;;;;;;0.60;0.50;;;;;;;20.85;44.76;93354.22;4992056;28;20037;-90
2022/05/28 10:07:10;;;;;;;1.30;0.60;;;;;;;20.85;45.09;93354.22;5021668;28;20030;-90
2022/05/28 10:09:36;;;;;;;0.60;0.60;;;;;;;20.88;44.62;93344.94;4990834;28;20087;-89
2022/05/28 10:12:07;;;;;;;0.45;0.45;;;;;;;20.87;44.61;93357.19;4987287;28;20029;-90
2022/05/28 10:14:33;;;;;;;1.02;0.60;;;;;;;20.88;44.97;93361.41;5020630;28;20125;-89
2022/05/28 10:17:00;;;;;;;0.90;0.60;;;;;;;20.86;44.89;93356.44;4965106;28;20190;-90
2022/05/28 10:19:28;;;;;;;0.63;0.57;;;;;;;20.87;44.88;93338.69;4988890;28;20041;-90
2022/05/28 10:21:56;;;;;;;0.40;0.40;;;;;;;20.87;44.74;93343.44;4998057;28;20042;-90
2022/05/28 10:24:22;;;;;;;0.60;0.60;;;;;;;20.87;45.04;93349.69;4970626;28;20492;-90
2022/05/28 10:26:58;;;;;;;0.68;0.63;;;;;;;20.86;44.88;93342.72;4985563;28;20044;-90
2022/05/28 10:29:32;;;;;;;0.80;0.45;;;;;;;20.87;44.44;93332.47;4964102;28;20046;-90
2022/05/28 10:31:58;;;;;;;0.50;0.40;;;;;;;20.86;44.60;93336.47;4974356;28;20548;-90
2022/05/28 10:34:35;;;;;;;0.70;0.60;;;;;;;20.86;44.92;93336.47;4980589;28;20041;-90
2022/05/28 10:37:12;;;;;;;0.60;0.50;;;;;;;20.87;44.82;93344.19;4995434;28;20041;-91
2022/05/28 10:39:38;;;;;;;0.73;0.40;;;;;;;20.87;44.72;93351.69;5008832;28;20021;-89
2022/05/28 10:42:05;;;;;;;0.60;0.43;;;;;;;20.90;44.89;93341.66;4968731;28;20032;-91
2022/05/28 10:44:31;;;;;;;0.82;0.47;;;;;;;20.88;44.73;93345.66;4993736;28;20045;-90
2022/05/28 10:46:57;;;;;;;0.60;0.60;;;;;;;20.88;44.86;93342.91;4974772;28;20056;-89
2022/05/28 10:49:43;;;;;;;0.57;0.50;;;;;;;20.87;44.90;93338.69;5007815;28;20049;-89
2022/05/28 10:52:32;;;;;;;0.65;0.65;;;;;;;20.87;44.81;93340.69;5007190;28;20543;-91
2022/05/28 10:55:04;;;;;;;0.73;0.65;;;;;;;20.87;44.68;93355.19;4983803;28;20049;-90
2022/05/28 10:57:51;;;;;;;0.50;0.47;;;;;;;20.86;44.62;93348.19;5003768;28;20057;-89
2022/05/28 11:00:28;;;;;;;0.45;0.38;;;;;;;20.86;44.87;93348.19;5022348;28;20559;-91
2022/05/28 11:03:13;;;;;;;0.55;0.40;;;;;;;20.85;44.58;93335.72;4982510;28;20037;-90
2022/05/28 11:06:08;;;;;;;0.57;0.40;;;;;;;20.87;44.79;93355.19;5011656;28;20037;-90
2022/05/28 11:08:45;;;;;;;0.95;0.60;;;;;;;20.87;44.48;93352.44;5027972;28;20045;-90
2022/05/28 11:11:16;;;;;;;0.57;0.40;;;;;;;20.89;44.54;93346.41;5015927;28;20053;-89
2022/05/28 11:14:03;;;;;;;0.30;0.30;;;;;;;20.86;44.86;93352.97;5029312;28;20033;-90
2022/05/28 11:16:47;;;;;;;0.70;0.40;;;;;;;20.85;44.49;93352.22;5011069;28;20228;-90
2022/05/28 11:19:15;;;;;;;1.73;0.35;;;;;;;20.89;44.73;93338.16;5006917;28;20041;-90
2022/05/28 11:21:45;;;;;;;0.90;0.45;;;;;;;20.88;44.43;93339.44;5006205;28;20594;-90
2022/05/28 11:24:33;;;;;;;2.33;0.57;;;;;;;20.88;44.53;93342.91;5021364;28;20048;-90
2022/05/28 11:27:23;;;;;;;0.63;0.50;;;;;;;20.88;44.50;93340.16;4997835;28;20515;-89
2022/05/28 11:30:18;;;;;;;0.90;0.47;;;;;;;20.86;44.50;93342.72;5029066;28;20116;-89
2022/05/28 11:33:04;;;;;;;0.93;0.60;;;;;;;20.87;44.78;93343.44;5011296;28;20404;-91
2022/05/28 11:35:50;;;;;;;0.80;0.55;;;;;;;20.87;44.79;93357.19;4991144;28;20041;-89
2022/05/28 11:38:22;;;;;;;0.63;0.50;;;;;;;20.87;44.84;93349.69;4994887;28;20038;-91
2022/05/28 11:40:54;;;;;;;0.52;0.40;;;;;;;20.90;44.36;93336.16;4996967;28;20446;-90
2022/05/28 11:43:28;;;;;;;1.25;0.60;;;;;;;20.89;44.33;93343.66;5027863;28;20041;-90
2022/05/28 11:46:04;;;;;;;2.35;0.60;;;;;;;20.88;44.53;93355.91;5004433;28;20037;-89